Time;durP1;ratioP1;P1;durP2;ratioP2;P2;SDS_P1;SDS_P2;PMS_P1;PMS_P2;Temp;Humidity;BMP_temperature;BMP_pressure;BME280_temperature;BME280_humidity;BME280_pressure;Samples;Min_cycle;Max_cycle;Signal;HPM_P1;HPM_P2
2023/06/06 00:00:22;;;;;;;5.85;5.25;;;11.70;99.90;12.80;94228.00;;;;7381680;19;20133;-75
2023/06/06 00:02:57;;;;;;;5.38;4.78;;;11.70;99.90;12.80;94247.00;;;;7383527;19;20131;-74
2023/06/06 00:05:27;;;;;;;5.78;5.15;;;11.70;1.00;12.70;94199.00;;;;7382727;19;20142;-72
2023/06/06 00:08:00;;;;;;;6.80;5.20;;;11.60;1.00;12.60;94246.00;;;;7382105;19;20708;-75
2023/06/06 00:10:30;;;;;;;6.65;4.63;;;11.60;1.00;12.50;94222.00;;;;7380798;19;20876;-74
2023/06/06 00:13:05;;;;;;;5.20;4.70;;;11.50;1.00;12.50;94229.00;;;;7381855;19;20141;-75
2023/06/06 00:15:36;;;;;;;5.45;4.70;;;11.40;1.00;12.50;94229.00;;;;7382672;19;20155;-75
2023/06/06 00:18:11;;;;;;;5.35;4.40;;;11.30;1.00;12.40;94224.00;;;;7381461;19;20209;-75
2023/06/06 00:20:46;;;;;;;6.07;5.18;;;11.30;25.50;12.40;94230.00;;;;7380974;19;20211;-75
2023/06/06 00:23:21;;;;;;;7.00;4.95;;;11.30;99.90;12.50;94183.00;;;;7379151;19;20152;-76
2023/06/06 00:25:56;;;;;;;6.40;4.75;;;11.30;1.00;12.40;94231.00;;;;7387369;19;20147;-73
2023/06/06 00:28:30;;;;;;;5.43;4.53;;;11.20;1.00;12.40;94240.00;;;;7388464;19;20166;-76
2023/06/06 00:30:57;;;;;;;5.97;5.05;;;11.20;1.00;12.40;94241.00;;;;7388521;19;21199;-76
2023/06/06 00:33:37;;;;;;;6.13;4.68;;;11.20;1.00;12.30;94223.00;;;;7389156;19;20186;-76
2023/06/06 00:36:17;;;;;;;5.90;4.82;;;11.20;1.00;12.20;94240.00;;;;7386614;19;20605;-74
2023/06/06 00:38:58;;;;;;;5.03;4.50;;;11.20;1.00;12.20;94239.00;;;;7387128;19;20165;-75
2023/06/06 00:41:26;;;;;;;5.35;4.60;;;11.10;1.00;12.20;94238.00;;;;7387951;19;20155;-73
2023/06/06 00:43:59;;;;;;;9.30;4.47;;;11.10;8.10;12.20;94244.00;;;;7390981;19;20127;-76
2023/06/06 00:46:27;;;;;;;7.25;4.90;;;11.00;64.10;12.20;94234.00;;;;7387372;19;20630;-77
2023/06/06 00:49:01;;;;;;;6.18;5.32;;;11.00;99.90;12.20;94227.00;;;;7388195;19;20236;-73
2023/06/06 00:51:34;;;;;;;7.65;4.82;;;11.00;99.90;12.30;94226.00;;;;7389043;19;20151;-75
2023/06/06 00:54:15;;;;;;;4.70;4.30;;;11.00;99.90;12.10;94222.00;;;;7388353;19;20174;-76
2023/06/06 00:56:51;;;;;;;5.60;4.95;;;11.00;99.90;12.40;94180.00;;;;7384815;19;20148;-75
2023/06/06 00:59:23;;;;;;;5.07;4.33;;;11.10;1.00;12.20;94221.00;;;;7387061;19;20499;-75
2023/06/06 01:01:58;;;;;;;4.90;4.30;;;11.20;1.00;12.40;94197.00;;;;7386032;19;20140;-80
2023/06/06 01:04:28;;;;;;;5.32;4.82;;;11.10;1.00;12.30;94232.00;;;;7388337;19;20167;-79
2023/06/06 01:07:02;;;;;;;4.72;4.20;;;11.10;99.90;12.30;94212.00;;;;7389535;19;20677;-80
2023/06/06 01:09:38;;;;;;;5.38;4.13;;;11.10;99.90;12.20;94232.00;;;;7389725;19;20155;-79
2023/06/06 01:12:28;;;;;;;4.68;3.95;;;11.00;99.90;12.20;94205.00;;;;7389542;19;20133;-79
2023/06/06 01:15:30;;;;;;;6.60;4.43;;;11.00;99.90;12.10;94225.00;;;;7387261;19;20557;-78
2023/06/06 01:18:01;;;;;;;4.05;3.65;;;10.90;99.90;12.10;94223.00;;;;7386914;19;20145;-79
2023/06/06 01:20:36;;;;;;;5.80;4.32;;;10.90;99.90;11.90;94190.00;;;;7389265;19;20128;-79
2023/06/06 01:23:04;;;;;;;5.85;4.47;;;10.80;99.90;11.80;94232.00;;;;7387513;19;20152;-79
2023/06/06 01:25:41;;;;;;;4.50;4.10;;;10.80;99.90;11.80;94202.00;;;;7389815;19;20175;-78
2023/06/06 01:28:16;;;;;;;6.80;4.40;;;10.70;99.90;11.80;94218.00;;;;7391288;19;20216;-82
2023/06/06 01:30:45;;;;;;;4.60;4.07;;;10.60;99.90;11.70;94219.00;;;;7390902;19;20163;-79
2023/06/06 01:34:07;;;;;;;5.70;3.75;;;10.60;1.00;11.60;94197.00;;;;7387566;19;20741;-80
2023/06/06 01:37:00;;;;;;;5.53;4.05;;;10.50;1.00;11.60;94225.00;;;;7385096;19;20601;-80
2023/06/06 01:39:38;;;;;;;3.72;3.35;;;10.50;1.00;11.30;94215.00;;;;7389648;19;20137;-81
2023/06/06 01:42:15;;;;;;;4.97;4.07;;;10.40;1.00;11.60;94169.00;;;;7389417;19;20581;-80
2023/06/06 01:44:43;;;;;;;4.10;3.72;;;10.40;1.00;11.50;94228.00;;;;7390350;19;20639;-80
2023/06/06 01:47:12;;;;;;;4.88;4.28;;;10.40;1.00;11.50;94189.00;;;;7386569;19;20132;-79
2023/06/06 01:49:46;;;;;;;5.30;3.88;;;10.40;1.00;11.50;94219.00;;;;7387989;19;20121;-79
2023/06/06 01:52:15;;;;;;;4.68;4.20;;;10.30;1.00;11.60;94207.00;;;;7391268;19;20125;-79
2023/06/06 01:54:49;;;;;;;4.47;3.90;;;10.30;1.00;11.70;94176.00;;;;7388515;19;20152;-80
2023/06/06 01:57:25;;;;;;;4.32;3.92;;;10.30;1.00;11.60;94210.00;;;;7387105;19;20156;-79
2023/06/06 01:59:53;;;;;;;6.68;3.88;;;10.30;1.00;11.70;94222.00;;;;7389005;19;20125;-80
2023/06/06 02:02:28;;;;;;;4.57;4.00;;;10.40;1.00;11.60;94219.00;;;;7384314;19;20155;-80
2023/06/06 02:05:03;;;;;;;4.47;4.05;;;10.40;1.00;11.70;94217.00;;;;7388308;19;20144;-79
2023/06/06 02:07:35;;;;;;;4.53;4.07;;;10.40;1.00;11.60;94223.00;;;;7387542;19;20133;-79
2023/06/06 02:10:10;;;;;;;4.00;3.60;;;10.40;1.00;11.40;94206.00;;;;7388466;19;20578;-80
2023/06/06 02:12:44;;;;;;;4.25;3.85;;;10.30;1.00;11.40;94183.00;;;;7388476;19;20128;-80
2023/06/06 02:15:19;;;;;;;4.75;3.30;;;10.30;1.00;11.40;94216.00;;;;7388554;19;20623;-83
2023/06/06 02:17:46;;;;;;;3.70;3.30;;;10.30;1.00;11.30;94240.00;;;;7385500;19;20629;-79
2023/06/06 02:20:21;;;;;;;4.13;3.20;;;10.20;1.00;11.20;94218.00;;;;7389184;19;20129;-79
2023/06/06 02:22:56;;;;;;;5.20;3.67;;;10.20;1.00;11.30;94202.00;;;;7388264;19;20132;-79
2023/06/06 02:25:33;;;;;;;5.00;3.92;;;10.10;1.00;11.30;94225.00;;;;7386620;19;20584;-79
2023/06/06 02:28:07;;;;;;;3.63;3.23;;;10.10;1.00;11.30;94227.00;;;;7387471;19;20149;-78
2023/06/06 02:30:35;;;;;;;3.75;3.30;;;10.10;1.00;11.30;94219.00;;;;7389714;19;20125;-79
2023/06/06 02:33:08;;;;;;;3.97;3.15;;;10.10;1.00;11.30;94236.00;;;;7387010;19;20219;-79
2023/06/06 02:35:49;;;;;;;3.90;3.50;;;10.10;1.00;11.30;94200.00;;;;7386547;19;20153;-79
2023/06/06 02:38:26;;;;;;;10.35;3.55;;;10.10;1.00;11.20;94200.00;;;;7389062;19;20184;-78
2023/06/06 02:40:59;;;;;;;3.38;2.97;;;10.10;1.00;11.30;94213.00;;;;7388686;19;20112;-79
2023/06/06 02:43:36;;;;;;;3.40;3.10;;;10.10;1.00;11.20;94227.00;;;;7388977;19;20164;-78
2023/06/06 02:46:09;;;;;;;5.22;3.40;;;10.10;1.00;11.10;94223.00;;;;7387877;19;20124;-79
2023/06/06 02:48:37;;;;;;;3.72;3.33;;;10.10;1.00;11.10;94232.00;;;;7384042;19;20121;-78
2023/06/06 02:51:11;;;;;;;3.40;3.10;;;10.10;1.00;11.00;94215.00;;;;7387111;19;20129;-77
2023/06/06 02:53:44;;;;;;;4.37;3.60;;;10.00;1.00;11.00;94234.00;;;;7386419;19;20147;-78
2023/06/06 02:56:20;;;;;;;3.93;3.53;;;10.00;1.00;11.00;94203.00;;;;7388200;19;20132;-78
2023/06/06 02:58:47;;;;;;;3.80;3.50;;;10.00;1.00;10.90;94172.00;;;;7386315;19;20179;-78
2023/06/06 03:01:21;;;;;;;4.00;3.47;;;10.00;1.00;11.00;94235.00;;;;7386439;19;20485;-79
2023/06/06 03:03:56;;;;;;;4.00;3.60;;;10.00;1.00;10.90;94205.00;;;;7387134;19;20168;-77
2023/06/06 03:06:23;;;;;;;4.60;3.77;;;9.90;1.00;10.90;94234.00;;;;7385792;19;20129;-83
2023/06/06 03:08:57;;;;;;;3.90;3.50;;;9.90;1.00;10.90;94218.00;;;;7388131;19;20155;-81
2023/06/06 03:11:25;;;;;;;6.00;3.40;;;9.90;1.00;10.90;94192.00;;;;7390515;19;20185;-79
2023/06/06 03:14:00;;;;;;;5.03;4.07;;;9.90;1.00;10.90;94228.00;;;;7386756;19;20161;-81
2023/06/06 03:16:28;;;;;;;5.70;3.47;;;9.90;1.00;10.90;94236.00;;;;7384314;19;20198;-78
2023/06/06 03:19:03;;;;;;;11.00;3.57;;;9.90;1.00;10.80;94240.00;;;;7387111;19;20169;-78
2023/06/06 03:21:41;;;;;;;3.63;3.33;;;9.80;1.00;10.80;94221.00;;;;7385179;19;20159;-78
2023/06/06 03:24:15;;;;;;;5.57;3.97;;;9.80;1.00;10.80;94242.00;;;;7386398;19;20131;-80
2023/06/06 03:26:50;;;;;;;4.03;3.60;;;9.80;1.00;10.80;94239.00;;;;7387658;19;20589;-79
2023/06/06 03:29:23;;;;;;;4.30;3.57;;;9.70;1.00;10.90;94219.00;;;;7386973;19;20128;-79
2023/06/06 03:31:58;;;;;;;4.60;3.50;;;9.80;1.00;10.80;94242.00;;;;7385682;19;20128;-76
2023/06/06 03:34:39;;;;;;;17.67;3.30;;;9.80;1.00;10.90;94212.00;;;;7384869;19;20540;-77
2023/06/06 03:37:06;;;;;;;5.60;4.00;;;9.80;1.00;10.80;94255.00;;;;7385834;19;20801;-80
2023/06/06 03:39:43;;;;;;;5.57;3.97;;;9.70;1.00;10.90;94247.00;;;;7387992;19;20140;-78
2023/06/06 03:42:11;;;;;;;7.10;5.40;;;9.80;1.00;10.90;94258.00;;;;7386952;19;20117;-78
2023/06/06 03:44:44;;;;;;;4.83;3.70;;;9.80;1.00;10.90;94251.00;;;;7386474;19;20121;-78
2023/06/06 03:47:20;;;;;;;5.33;4.00;;;9.90;1.00;10.90;94247.00;;;;7385646;19;20531;-79
2023/06/06 03:49:47;;;;;;;6.03;4.20;;;9.90;1.00;10.90;94245.00;;;;7386014;19;20456;-80
2023/06/06 03:52:22;;;;;;;5.63;3.90;;;9.90;1.00;11.00;94240.00;;;;7386664;19;20624;-80
2023/06/06 03:54:56;;;;;;;5.70;3.50;;;9.90;1.00;11.00;94216.00;;;;7385866;19;20148;-80
2023/06/06 03:57:30;;;;;;;5.47;4.10;;;10.00;1.00;11.00;94248.00;;;;7385241;19;20125;-77
2023/06/06 04:00:10;;;;;;;5.30;3.87;;;10.00;1.00;11.00;94247.00;;;;7389233;19;20177;-80
2023/06/06 04:02:42;;;;;;;3.77;3.37;;;10.00;1.00;11.10;94249.00;;;;7388406;19;20208;-80
2023/06/06 04:05:18;;;;;;;4.90;3.40;;;10.00;1.00;11.20;94242.00;;;;7394218;19;20127;-78
2023/06/06 04:07:51;;;;;;;5.23;3.40;;;10.10;1.00;11.40;94245.00;;;;7391343;19;20150;-79
2023/06/06 04:10:27;;;;;;;4.63;3.40;;;10.10;1.00;11.40;94248.00;;;;7391073;19;20131;-79
2023/06/06 04:13:02;;;;;;;5.17;3.73;;;10.30;1.00;11.50;94247.00;;;;7392809;19;20129;-81
2023/06/06 04:15:38;;;;;;;4.13;3.67;;;10.30;1.00;11.60;94233.00;;;;7392166;19;20163;-78
2023/06/06 04:18:13;;;;;;;4.30;3.60;;;10.40;1.00;11.70;94229.00;;;;7390420;19;20151;-80
2023/06/06 04:20:47;;;;;;;4.00;3.47;;;10.50;1.00;11.70;94253.00;;;;7391438;19;20161;-79
2023/06/06 04:23:15;;;;;;;5.87;3.53;;;10.50;1.00;11.80;94252.00;;;;7392154;19;20124;-79
2023/06/06 04:25:48;;;;;;;4.63;3.30;;;10.60;1.00;11.80;94226.00;;;;7390154;19;20465;-80
2023/06/06 04:28:19;;;;;;;4.18;3.50;;;10.60;99.90;11.80;94238.00;;;;7393586;19;20489;-79
2023/06/06 04:30:53;;;;;;;6.65;3.63;;;10.60;99.90;12.00;94234.00;;;;7390486;19;20158;-78
2023/06/06 04:33:30;;;;;;;4.05;3.63;;;10.70;99.90;12.10;94253.00;;;;7389251;19;20133;-79
2023/06/06 04:36:06;;;;;;;4.43;3.40;;;10.80;99.90;12.20;94261.00;;;;7390558;19;20141;-79
2023/06/06 04:38:41;;;;;;;5.37;3.57;;;10.80;99.90;12.30;94222.00;;;;7390239;19;20132;-77
2023/06/06 04:41:20;;;;;;;5.43;3.20;;;11.00;99.90;12.40;94252.00;;;;7390314;19;20684;-78
2023/06/06 04:44:08;;;;;;;4.90;3.42;;;11.10;99.90;12.60;94255.00;;;;7388437;19;20141;-79
2023/06/06 04:46:43;;;;;;;3.63;3.17;;;11.20;99.90;12.80;94254.00;;;;7390571;19;20143;-78
2023/06/06 04:49:19;;;;;;;4.07;3.67;;;11.30;70.00;12.90;94251.00;;;;7388128;19;20165;-78
2023/06/06 04:51:46;;;;;;;4.80;3.05;;;11.50;1.00;13.10;94257.00;;;;7387390;19;20635;-79
2023/06/06 04:54:23;;;;;;;3.58;3.28;;;11.60;1.00;13.20;94230.00;;;;7387488;19;20160;-79
2023/06/06 04:56:51;;;;;;;4.05;3.25;;;11.80;1.00;13.30;94246.00;;;;7389804;19;20140;-79
2023/06/06 04:59:27;;;;;;;3.50;3.13;;;11.90;1.00;13.50;94245.00;;;;7389054;19;20597;-79
2023/06/06 05:01:57;;;;;;;3.85;3.17;;;12.10;1.00;13.70;94210.00;;;;7386909;19;20625;-79
2023/06/06 05:04:32;;;;;;;3.90;3.17;;;12.20;99.90;13.80;94241.00;;;;7389872;19;20139;-78
2023/06/06 05:07:08;;;;;;;3.20;2.90;;;12.40;99.90;14.10;94215.00;;;;7388421;19;20152;-79
2023/06/06 05:09:43;;;;;;;3.00;2.70;;;12.60;99.90;14.30;94238.00;;;;7387515;19;20120;-79
2023/06/06 05:12:16;;;;;;;4.68;2.90;;;12.80;1.00;14.40;94244.00;;;;7385174;19;20125;-78
2023/06/06 05:14:44;;;;;;;3.80;3.00;;;13.00;99.90;14.60;94245.00;;;;7387346;19;20144;-78
2023/06/06 05:17:20;;;;;;;3.58;2.67;;;13.20;1.00;14.80;94251.00;;;;7388027;19;20133;-78
2023/06/06 05:19:48;;;;;;;5.75;5.15;;;13.40;99.90;14.90;94246.00;;;;7387052;19;20248;-77
2023/06/06 05:22:22;;;;;;;12.00;4.72;;;13.60;99.90;15.00;94253.00;;;;7389277;19;20158;-78
2023/06/06 05:24:50;;;;;;;4.80;3.03;;;13.80;99.90;14.90;94222.00;;;;7387660;19;20121;-79
2023/06/06 05:27:23;;;;;;;3.58;2.90;;;13.90;99.90;14.70;94257.00;;;;7385710;19;20136;-79
2023/06/06 05:29:51;;;;;;;4.50;2.85;;;13.90;50.30;14.80;94237.00;;;;7385781;19;20136;-79
2023/06/06 05:32:24;;;;;;;7.40;2.80;;;13.90;1.00;14.70;94242.00;;;;7385641;19;20129;-79
2023/06/06 05:35:03;;;;;;;3.10;2.80;;;13.90;1.00;14.70;94241.00;;;;7386749;19;20178;-78
2023/06/06 05:37:36;;;;;;;3.80;2.63;;;13.90;1.00;14.80;94219.00;;;;7388601;19;20140;-78
2023/06/06 05:40:11;;;;;;;4.65;2.95;;;13.90;31.60;15.20;94264.00;;;;7388209;19;20136;-78
2023/06/06 05:42:45;;;;;;;3.03;2.72;;;14.10;13.10;15.50;94261.00;;;;7386271;19;20136;-80
2023/06/06 05:45:13;;;;;;;2.78;2.53;;;14.30;1.00;15.80;94257.00;;;;7387763;19;20217;-78
2023/06/06 05:47:42;;;;;;;2.50;2.30;;;14.60;1.00;16.10;94274.00;;;;7387117;19;20129;-79
2023/06/06 05:50:15;;;;;;;4.68;2.60;;;15.00;1.00;16.10;94267.00;;;;7386556;19;20144;-79
2023/06/06 05:52:56;;;;;;;3.58;2.95;;;15.20;1.00;16.60;94261.00;;;;7385905;19;20179;-78
2023/06/06 05:55:35;;;;;;;6.07;3.20;;;15.50;99.90;17.10;94259.00;;;;7385570;19;20216;-77
2023/06/06 05:58:10;;;;;;;2.90;2.60;;;15.80;99.90;17.40;94240.00;;;;7386635;19;20121;-79
2023/06/06 06:00:38;;;;;;;5.75;3.20;;;16.20;1.00;17.70;94270.00;;;;7387489;19;20464;-80
2023/06/06 06:03:14;;;;;;;2.60;2.40;;;16.50;1.00;17.70;94242.00;;;;7387280;19;20196;-80
2023/06/06 06:05:48;;;;;;;4.13;2.60;;;16.70;99.90;17.80;94261.00;;;;7387246;19;20145;-79
2023/06/06 06:08:24;;;;;;;3.08;2.40;;;16.80;45.20;17.60;94274.00;;;;7388512;19;20589;-78
2023/06/06 06:10:53;;;;;;;4.03;2.70;;;17.10;1.00;17.50;94246.00;;;;7387988;19;20603;-79
2023/06/06 06:13:27;;;;;;;2.72;2.47;;;17.10;1.00;17.50;94281.00;;;;7386237;19;20140;-79
2023/06/06 06:15:55;;;;;;;3.55;2.58;;;17.00;1.00;17.00;94286.00;;;;7387400;19;20137;-79
2023/06/06 06:18:28;;;;;;;2.67;2.42;;;16.80;1.00;17.00;94279.00;;;;7386250;19;20113;-77
2023/06/06 06:20:56;;;;;;;2.70;2.15;;;16.60;1.00;17.10;94277.00;;;;7388240;19;20188;-81
2023/06/06 06:23:29;;;;;;;6.82;2.97;;;16.50;1.00;17.30;94281.00;;;;7387717;19;20723;-80
2023/06/06 06:26:04;;;;;;;2.45;2.25;;;16.40;1.00;17.70;94264.00;;;;7385835;19;20176;-81
2023/06/06 06:28:39;;;;;;;2.90;2.70;;;16.40;1.00;17.50;94287.00;;;;7387330;19;20141;-80
2023/06/06 06:31:06;;;;;;;3.95;2.50;;;16.40;1.00;18.20;94282.00;;;;7385339;19;20482;-79
2023/06/06 06:33:40;;;;;;;2.88;2.58;;;16.60;1.00;19.10;94286.00;;;;7386645;19;21027;-80
2023/06/06 06:36:21;;;;;;;2.80;2.55;;;16.90;1.00;19.70;94300.00;;;;7385650;19;20128;-77
2023/06/06 06:38:56;;;;;;;3.47;2.90;;;17.20;1.00;19.10;94270.00;;;;7383183;19;20128;-77
2023/06/06 06:41:24;;;;;;;4.05;3.08;;;17.40;1.00;18.90;94273.00;;;;7386127;19;20145;-78
2023/06/06 06:43:58;;;;;;;3.85;2.65;;;17.20;1.00;18.50;94284.00;;;;7384834;19;20129;-79
2023/06/06 06:46:25;;;;;;;3.10;2.80;;;17.10;1.00;19.80;94273.00;;;;7386374;19;20543;-78
2023/06/06 06:48:59;;;;;;;4.15;2.97;;;17.20;1.00;20.70;94294.00;;;;7388056;19;20593;-78
2023/06/06 06:51:27;;;;;;;4.70;2.90;;;17.60;1.00;20.90;94284.00;;;;7383222;19;20558;-79
2023/06/06 06:54:05;;;;;;;2.95;2.47;;;;;21.00;94251.00;;;;7385321;19;20597;-79
2023/06/06 06:56:36;;;;;;;3.05;2.45;;;18.40;1.00;21.60;94293.00;;;;7386765;19;20129;-77
2023/06/06 06:59:13;;;;;;;3.35;2.70;;;18.60;1.00;21.70;94283.00;;;;7382055;19;20152;-78
2023/06/06 07:01:45;;;;;;;4.63;2.67;;;18.80;1.00;22.60;94261.00;;;;7383781;19;21361;-78
2023/06/06 07:04:21;;;;;;;2.58;2.38;;;18.70;1.00;21.40;94309.00;;;;7385397;19;20129;-77
2023/06/06 07:06:56;;;;;;;3.13;2.83;;;18.70;1.00;21.30;94297.00;;;;7380717;19;20120;-80
2023/06/06 07:09:32;;;;;;;3.75;2.80;;;18.60;1.00;21.00;94299.00;;;;7377667;19;20124;-77
2023/06/06 07:11:59;;;;;;;3.25;2.95;;;18.70;1.00;20.80;94272.00;;;;7382028;19;20136;-78
2023/06/06 07:14:33;;;;;;;3.55;2.78;;;18.80;1.00;20.70;94320.00;;;;7378747;19;20204;-78
2023/06/06 07:17:00;;;;;;;3.92;2.78;;;18.80;1.00;20.70;94293.00;;;;7376049;19;20133;-79
2023/06/06 07:19:28;;;;;;;3.65;2.88;;;18.70;1.00;20.70;94276.00;;;;7379840;19;20125;-78
2023/06/06 07:22:05;;;;;;;3.70;2.83;;;18.60;1.00;20.90;94318.00;;;;7379321;19;20608;-79
2023/06/06 07:24:33;;;;;;;5.30;2.95;;;18.50;1.00;20.70;94298.00;;;;7378167;19;20153;-77
2023/06/06 07:27:08;;;;;;;4.88;2.97;;;18.60;1.00;20.50;94290.00;;;;7383559;19;20159;-78
2023/06/06 07:29:36;;;;;;;3.17;2.55;;;18.70;1.00;20.90;94309.00;;;;7383751;19;20124;-78
2023/06/06 07:32:11;;;;;;;4.28;3.10;;;18.60;1.00;20.70;94327.00;;;;7383987;19;20128;-79
2023/06/06 07:34:52;;;;;;;4.43;2.40;;;18.80;1.00;21.00;94327.00;;;;7386451;19;20516;-78
2023/06/06 07:37:26;;;;;;;3.30;2.83;;;18.80;1.00;21.40;94314.00;;;;7391356;19;20132;-78
2023/06/06 07:39:59;;;;;;;3.78;3.35;;;18.90;1.00;20.90;94320.00;;;;7392105;19;20467;-78
2023/06/06 07:42:27;;;;;;;5.40;2.97;;;18.80;1.00;20.90;94313.00;;;;7392033;19;20128;-77
2023/06/06 07:45:05;;;;;;;3.42;3.08;;;18.90;1.00;20.90;94302.00;;;;7390378;19;20148;-80
2023/06/06 07:47:32;;;;;;;3.95;3.17;;;19.20;1.00;20.90;94318.00;;;;7391114;19;20540;-78
2023/06/06 07:50:07;;;;;;;3.60;2.78;;;19.30;1.00;20.70;94312.00;;;;7391176;19;20589;-79
2023/06/06 07:52:35;;;;;;;3.63;2.85;;;19.10;1.00;20.70;94258.00;;;;7391199;19;20149;-78
2023/06/06 07:55:05;;;;;;;4.40;3.00;;;19.10;1.00;20.80;94310.00;;;;7388803;19;20635;-77
2023/06/06 07:57:40;;;;;;;3.95;2.72;;;19.20;1.00;20.60;94281.00;;;;7390938;19;20129;-78
2023/06/06 08:00:16;;;;;;;3.35;2.97;;;19.50;1.00;20.50;94316.00;;;;7390349;19;20150;-77
2023/06/06 08:02:44;;;;;;;7.35;3.45;;;19.60;1.00;20.80;94316.00;;;;7388393;19;20240;-79
2023/06/06 08:05:12;;;;;;;5.07;2.83;;;19.60;1.00;21.00;94320.00;;;;7388094;19;20631;-79
2023/06/06 08:07:46;;;;;;;4.68;3.10;;;19.50;1.00;21.10;94286.00;;;;7392771;19;20117;-80
2023/06/06 08:10:13;;;;;;;5.45;2.47;;;19.70;1.00;21.50;94281.00;;;;7390243;19;20593;-78
2023/06/06 08:12:47;;;;;;;3.70;2.83;;;19.70;1.00;21.40;94296.00;;;;7391819;19;20117;-78
2023/06/06 08:15:14;;;;;;;3.92;3.13;;;19.90;1.00;21.40;94286.00;;;;7391265;19;20649;-76
2023/06/06 08:17:49;;;;;;;6.80;2.97;;;20.10;1.00;21.70;94316.00;;;;7388626;19;20195;-76
2023/06/06 08:20:18;;;;;;;4.38;2.90;;;20.30;1.00;21.60;94321.00;;;;7389748;19;20129;-78
2023/06/06 08:22:52;;;;;;;6.40;2.90;;;20.30;1.00;21.80;94309.00;;;;7392161;19;20123;-77
2023/06/06 08:25:20;;;;;;;3.08;2.50;;;20.20;1.00;21.80;94306.00;;;;7387336;19;20153;-79
2023/06/06 08:27:58;;;;;;;4.47;3.00;;;20.30;1.00;21.80;94318.00;;;;7389493;19;20535;-80
2023/06/06 08:30:31;;;;;;;6.72;2.92;;;20.30;1.00;22.00;94310.00;;;;7391696;19;20572;-76
2023/06/06 08:33:06;;;;;;;5.25;3.03;;;20.50;1.00;22.30;94317.00;;;;7387524;19;20152;-78
2023/06/06 08:35:53;;;;;;;3.15;2.85;;;20.60;1.00;22.50;94313.00;;;;7386081;19;20617;-80
2023/06/06 08:38:24;;;;;;;3.20;2.90;;;20.70;99.90;22.20;94315.00;;;;7387849;19;20149;-78
2023/06/06 08:41:01;;;;;;;3.10;2.55;;;20.60;99.90;22.30;94277.00;;;;7387940;19;20141;-79
2023/06/06 08:43:36;;;;;;;3.03;2.70;;;20.60;99.90;22.70;94264.00;;;;7388805;19;20124;-78
2023/06/06 08:46:10;;;;;;;4.03;2.53;;;20.80;99.90;23.50;94313.00;;;;7388745;19;20619;-80
2023/06/06 08:48:46;;;;;;;3.85;3.03;;;21.00;99.90;23.70;94315.00;;;;7389652;19;20135;-78
2023/06/06 08:51:27;;;;;;;4.28;3.10;;;21.30;66.50;23.40;94295.00;;;;7389887;19;20151;-79
2023/06/06 08:53:55;;;;;;;3.63;3.00;;;21.20;25.70;23.60;94325.00;;;;7388535;19;20750;-80
2023/06/06 08:56:44;;;;;;;3.50;3.10;;;21.40;1.00;23.60;94317.00;;;;7388858;19;20145;-77
2023/06/06 08:59:13;;;;;;;8.75;3.13;;;21.50;1.00;24.20;94324.00;;;;7387771;19;20129;-79
2023/06/06 09:01:53;;;;;;;3.40;2.75;;;21.70;1.00;24.20;94331.00;;;;7387430;19;20152;-77
2023/06/06 09:04:27;;;;;;;4.60;3.10;;;21.60;1.00;24.30;94296.00;;;;7387326;19;20153;-78
2023/06/06 09:06:56;;;;;;;4.60;3.20;;;21.50;1.00;24.00;94326.00;;;;7390534;19;20256;-78
2023/06/06 09:09:35;;;;;;;4.03;3.10;;;21.80;1.00;23.80;94301.00;;;;7387042;19;20215;-78
2023/06/06 09:12:11;;;;;;;3.17;2.83;;;22.00;1.00;24.20;94315.00;;;;7386565;19;20129;-80
2023/06/06 09:14:45;;;;;;;4.60;2.85;;;22.00;1.00;23.90;94312.00;;;;7390094;19;20692;-78
2023/06/06 09:17:20;;;;;;;4.15;3.13;;;22.00;1.00;24.30;94329.00;;;;7386581;19;20532;-77
2023/06/06 09:19:47;;;;;;;5.28;3.38;;;21.90;1.00;24.20;94314.00;;;;7386200;19;20133;-76
2023/06/06 09:22:22;;;;;;;5.25;3.33;;;22.00;1.00;24.20;94282.00;;;;7390780;19;20201;-80
2023/06/06 09:24:58;;;;;;;3.08;2.78;;;22.20;1.00;23.90;94310.00;;;;7389954;19;20124;-80
2023/06/06 09:27:33;;;;;;;6.97;2.63;;;22.50;1.00;23.90;94330.00;;;;7386680;19;20162;-78
2023/06/06 09:30:22;;;;;;;4.55;2.85;;;22.60;1.00;24.30;94334.00;;;;7387141;19;20117;-78
2023/06/06 09:33:03;;;;;;;3.42;3.13;;;23.00;1.00;23.70;94327.00;;;;7387253;19;20483;-80
2023/06/06 09:35:47;;;;;;;5.85;3.03;;;23.10;1.00;24.30;94335.00;;;;7385003;19;20457;-80
2023/06/06 09:38:23;;;;;;;4.40;3.38;;;23.20;1.00;24.50;94334.00;;;;7388014;19;20132;-78
2023/06/06 09:40:51;;;;;;;8.18;3.38;;;23.30;1.00;23.40;94315.00;;;;7384188;19;20693;-79
2023/06/06 09:43:27;;;;;;;3.95;2.80;;;23.10;1.00;23.80;94314.00;;;;7386464;19;20239;-80
2023/06/06 09:45:55;;;;;;;5.55;3.08;;;23.10;1.00;24.30;94316.00;;;;7384986;19;20151;-79
2023/06/06 09:48:29;;;;;;;10.48;3.40;;;23.20;1.00;25.10;94315.00;;;;7386189;19;20210;-75
2023/06/06 09:51:03;;;;;;;10.13;3.10;;;23.20;1.00;24.90;94306.00;;;;7386614;19;20121;-75
2023/06/06 09:53:40;;;;;;;6.88;2.80;;;23.30;1.00;25.30;94308.00;;;;7388367;19;20134;-79
2023/06/06 09:56:09;;;;;;;5.93;3.40;;;23.60;1.00;25.70;94311.00;;;;7385822;19;20148;-74
2023/06/06 09:58:43;;;;;;;4.25;2.80;;;23.80;1.00;25.90;94315.00;;;;7378505;19;20121;-74
2023/06/06 10:01:12;;;;;;;5.70;3.30;;;23.90;1.00;25.90;94315.00;;;;7378052;19;20610;-73
2023/06/06 10:03:46;;;;;;;3.28;2.97;;;24.10;1.00;26.30;94304.00;;;;7381491;19;20650;-73
2023/06/06 10:06:22;;;;;;;5.03;3.45;;;24.70;1.00;26.90;94300.00;;;;7380874;19;20171;-74
2023/06/06 10:08:53;;;;;;;11.65;3.28;;;24.70;1.00;26.60;94303.00;;;;7380437;19;20525;-76
2023/06/06 10:11:21;;;;;;;6.70;3.17;;;24.80;1.00;26.80;94306.00;;;;7379643;19;20152;-73
2023/06/06 10:13:56;;;;;;;3.90;3.25;;;25.00;1.00;26.60;94302.00;;;;7377880;19;20151;-74
2023/06/06 10:16:27;;;;;;;5.68;3.45;;;25.20;1.00;26.80;94318.00;;;;7378770;19;20749;-75
2023/06/06 10:19:03;;;;;;;3.80;3.40;;;25.40;1.00;26.20;94293.00;;;;7379534;19;20144;-75
2023/06/06 10:21:32;;;;;;;6.97;3.60;;;25.90;1.00;26.80;94294.00;;;;7378536;19;20590;-78
2023/06/06 10:24:07;;;;;;;9.48;3.58;;;26.00;1.00;27.10;94318.00;;;;7381958;19;20132;-74
2023/06/06 10:26:51;;;;;;;5.32;3.60;;;26.20;1.00;26.80;94304.00;;;;7377612;19;20188;-74
2023/06/06 10:29:47;;;;;;;4.68;3.75;;;26.20;1.00;27.10;94306.00;;;;7372796;19;20144;-75
2023/06/06 10:32:29;;;;;;;3.63;3.33;;;26.30;1.00;27.20;94298.00;;;;7376831;19;20231;-74
2023/06/06 10:35:07;;;;;;;5.20;3.55;;;26.70;1.00;27.90;94279.00;;;;7379008;19;20156;-75
2023/06/06 10:38:09;;;;;;;7.35;3.35;;;26.70;1.00;27.70;94276.00;;;;7377709;19;20132;-74
2023/06/06 10:40:53;;;;;;;5.93;3.50;;;26.70;1.00;28.00;94296.00;;;;7378550;19;21000;-76
2023/06/06 10:43:43;;;;;;;6.13;3.90;;;26.40;1.00;27.60;94300.00;;;;7378101;19;20151;-72
2023/06/06 10:46:11;;;;;;;4.22;3.55;;;27.00;1.00;28.60;94300.00;;;;7378339;19;20155;-73
2023/06/06 10:48:54;;;;;;;5.20;3.65;;;27.10;99.90;28.40;94292.00;;;;7380545;19;20144;-74
2023/06/06 10:51:39;;;;;;;5.53;3.50;;;27.00;99.90;28.40;94269.00;;;;7376530;19;20204;-75
2023/06/06 10:54:21;;;;;;;10.00;3.55;;;26.90;99.90;27.30;94280.00;;;;7380004;19;20137;-81
2023/06/06 10:56:56;;;;;;;6.50;3.35;;;27.00;99.90;28.20;94290.00;;;;7377240;19;20465;-74
2023/06/06 10:59:31;;;;;;;4.05;3.50;;;26.70;99.90;28.60;94297.00;;;;7377985;19;20513;-73
2023/06/06 11:02:31;;;;;;;10.13;3.63;;;26.50;99.90;27.40;94272.00;;;;7375408;19;20243;-74
2023/06/06 11:05:03;;;;;;;4.63;3.42;;;26.80;99.90;28.20;94280.00;;;;7378970;19;20589;-74
2023/06/06 11:07:38;;;;;;;4.22;3.50;;;26.70;99.90;28.50;94279.00;;;;7377751;19;20154;-73
2023/06/06 11:10:21;;;;;;;3.95;3.55;;;27.30;99.90;27.50;94302.00;;;;7374561;19;20136;-76
2023/06/06 11:13:25;;;;;;;8.82;3.83;;;27.30;99.90;28.30;94283.00;;;;7379602;19;20129;-75
2023/06/06 11:15:59;;;;;;;5.03;3.40;;;27.20;99.90;28.90;94254.00;;;;7379732;19;20160;-76
2023/06/06 11:18:40;;;;;;;3.42;3.13;;;27.40;99.90;29.60;94262.00;;;;7375795;19;20161;-74
2023/06/06 11:21:20;;;;;;;5.10;3.53;;;28.00;99.90;29.20;94272.00;;;;7369211;19;20919;-73
2023/06/06 11:23:55;;;;;;;5.40;3.45;;;28.20;99.90;29.50;94265.00;;;;7379231;19;20148;-76
2023/06/06 11:26:27;;;;;;;7.18;3.47;;;28.30;99.90;27.50;94277.00;;;;7376273;19;20175;-74
2023/06/06 11:29:02;;;;;;;5.75;3.33;;;27.80;99.90;26.60;94275.00;;;;7378528;19;20455;-75
2023/06/06 11:31:38;;;;;;;4.28;3.35;;;27.10;99.90;27.00;94267.00;;;;7375376;19;20674;-75